Time;durP1;ratioP1;P1;durP2;ratioP2;P2;SDS_P1;SDS_P2;PMS_P1;PMS_P2;Temp;Humidity;BMP_temperature;BMP_pressure;BME280_temperature;BME280_humidity;BME280_pressure;Samples;Min_cycle;Max_cycle;Signal;HPM_P1;HPM_P2
2022/12/03 00:02:21;;;;;;;;;;;4.50;99.90;;;;;;5008706;28;20184;-72
2022/12/03 00:04:52;;;;;;;;;;;4.50;99.90;;;;;;5006783;28;20410;-73
2022/12/03 00:07:28;;;;;;;;;;;4.50;99.90;;;;;;5008859;28;20027;-73
2022/12/03 00:09:55;;;;;;;;;;;4.50;99.90;;;;;;5010637;28;19983;-73
2022/12/03 00:12:23;;;;;;;;;;;4.50;99.90;;;;;;5027055;28;19925;-73
2022/12/03 00:14:50;;;;;;;;;;;4.50;99.90;;;;;;5012949;28;19933;-73
2022/12/03 00:17:17;;;;;;;;;;;4.50;99.90;;;;;;5012630;28;19925;-73
2022/12/03 00:19:44;;;;;;;;;;;4.60;99.90;;;;;;5009802;28;19928;-73
2022/12/03 00:22:16;;;;;;;;;;;4.50;99.90;;;;;;5013899;28;19944;-73
2022/12/03 00:24:45;;;;;;;;;;;4.50;99.90;;;;;;5012781;28;19929;-73
2022/12/03 00:27:15;;;;;;;;;;;4.40;99.90;;;;;;5013059;28;20144;-73
2022/12/03 00:29:46;;;;;;;;;;;4.50;99.90;;;;;;5010563;28;20019;-73
2022/12/03 00:32:13;;;;;;;;;;;4.60;99.90;;;;;;5012247;28;20162;-73
2022/12/03 00:34:40;;;;;;;;;;;4.50;99.90;;;;;;5014889;28;19929;-73
2022/12/03 00:37:08;;;;;;;;;;;4.50;99.90;;;;;;5011312;28;19940;-73
2022/12/03 00:39:35;;;;;;;;;;;4.50;99.90;;;;;;5011348;28;20086;-73
2022/12/03 00:42:03;;;;;;;;;;;4.50;99.90;;;;;;5011909;28;20214;-73
2022/12/03 00:44:38;;;;;;;;;;;4.50;99.90;;;;;;5016046;28;20834;-73
2022/12/03 00:47:08;;;;;;;;;;;4.50;99.90;;;;;;5029832;28;19954;-73
2022/12/03 00:49:40;;;;;;;;;;;4.50;99.90;;;;;;5012258;28;19990;-73
2022/12/03 00:52:07;;;;;;;;;;;4.50;99.90;;;;;;5007167;28;19929;-73
2022/12/03 00:54:34;;;;;;;;;;;4.50;99.90;;;;;;5010771;28;20528;-73
2022/12/03 00:57:03;;;;;;;;;;;4.50;99.90;;;;;;5010614;28;19933;-73
2022/12/03 00:59:33;;;;;;;;;;;4.50;99.90;;;;;;5011827;28;19929;-73
2022/12/03 01:02:01;;;;;;;;;;;4.40;99.90;;;;;;5009094;28;20399;-73
2022/12/03 01:04:31;;;;;;;;;;;4.40;99.90;;;;;;5013365;28;20445;-73
2022/12/03 01:07:04;;;;;;;;;;;4.50;99.90;;;;;;5008932;28;20471;-73
2022/12/03 01:09:32;;;;;;;;;;;4.40;99.90;;;;;;5014912;28;20386;-73
2022/12/03 01:11:59;;;;;;;;;;;4.40;99.90;;;;;;5010014;28;20808;-73
2022/12/03 01:14:31;;;;;;;;;;;4.40;99.90;;;;;;5009237;28;20588;-73
2022/12/03 01:17:12;;;;;;;;;;;4.40;99.90;;;;;;5013428;28;20178;-73
2022/12/03 01:19:43;;;;;;;;;;;4.40;99.90;;;;;;5013314;28;19928;-73
2022/12/03 01:22:20;;;;;;;;;;;4.40;99.90;;;;;;5014112;28;19932;-73
2022/12/03 01:24:52;;;;;;;;;;;4.40;99.90;;;;;;5009986;28;20118;-74
2022/12/03 01:27:20;;;;;;;;;;;4.40;99.90;;;;;;5023585;28;19928;-74
2022/12/03 01:29:47;;;;;;;;;;;4.40;99.90;;;;;;5028298;28;19998;-74
2022/12/03 01:32:17;;;;;;;;;;;4.40;99.90;;;;;;5013819;28;20568;-74
2022/12/03 01:34:50;;;;;;;;;;;4.40;99.90;;;;;;5007313;28;19928;-74
2022/12/03 01:37:17;;;;;;;;;;;4.40;99.90;;;;;;5022644;28;19935;-74
2022/12/03 01:39:46;;;;;;;;;;;4.40;99.90;;;;;;5005572;28;20128;-74
2022/12/03 01:42:17;;;;;;;;;;;4.40;99.90;;;;;;5011733;28;19944;-74
2022/12/03 01:44:44;;;;;;;;;;;4.40;99.90;;;;;;5008065;28;19936;-74
2022/12/03 01:47:15;;;;;;;;;;;4.40;99.90;;;;;;5009929;28;20019;-74
2022/12/03 01:49:46;;;;;;;;;;;4.40;99.90;;;;;;5011239;28;19944;-74
2022/12/03 01:52:19;;;;;;;;;;;4.40;99.90;;;;;;5015948;28;19929;-74
2022/12/03 01:54:48;;;;;;;;;;;4.40;99.90;;;;;;5008465;28;20694;-74
2022/12/03 01:57:20;;;;;;;;;;;4.40;99.90;;;;;;5009502;28;19929;-74
2022/12/03 01:59:47;;;;;;;;;;;4.40;99.90;;;;;;5023445;28;19933;-74
2022/12/03 02:02:19;;;;;;;;;;;4.40;99.90;;;;;;5030745;28;19956;-74
2022/12/03 02:04:49;;;;;;;;;;;4.40;99.90;;;;;;5019600;28;20067;-74
2022/12/03 02:07:19;;;;;;;;;;;4.40;99.90;;;;;;5001816;28;19963;-74
2022/12/03 02:09:46;;;;;;;;;;;4.40;99.90;;;;;;5011038;28;20036;-74
2022/12/03 02:12:21;;;;;;;;;;;4.40;99.90;;;;;;5007092;28;19956;-74
2022/12/03 02:14:51;;;;;;;;;;;4.40;99.90;;;;;;5005859;28;20612;-74
2022/12/03 02:17:20;;;;;;;;;;;4.40;99.90;;;;;;5009726;28;20062;-74
2022/12/03 02:19:48;;;;;;;;;;;4.40;99.90;;;;;;5006487;28;20633;-74
2022/12/03 02:22:23;;;;;;;;;;;4.40;99.90;;;;;;5009393;28;20017;-73
2022/12/03 02:24:55;;;;;;;;;;;4.40;99.90;;;;;;5006376;28;19940;-74
2022/12/03 02:27:28;;;;;;;;;;;4.40;99.90;;;;;;5008006;28;20799;-74
2022/12/03 02:29:55;;;;;;;;;;;4.40;99.90;;;;;;5003253;28;19933;-74
2022/12/03 02:32:25;;;;;;;;;;;4.40;99.90;;;;;;5002978;28;20186;-74
2022/12/03 02:34:52;;;;;;;;;;;4.40;99.90;;;;;;5008047;28;20394;-74
2022/12/03 02:37:24;;;;;;;;;;;4.40;99.90;;;;;;5009867;28;19933;-74
2022/12/03 02:39:56;;;;;;;;;;;4.40;99.90;;;;;;5003508;28;19932;-74
2022/12/03 02:42:37;;;;;;;;;;;4.40;99.90;;;;;;5010670;28;19928;-74
2022/12/03 02:45:09;;;;;;;;;;;4.40;99.90;;;;;;5003994;28;19951;-74
2022/12/03 02:47:41;;;;;;;;;;;4.40;99.90;;;;;;5007678;28;20202;-74
2022/12/03 02:50:11;;;;;;;;;;;4.30;99.90;;;;;;5000655;28;20134;-74
2022/12/03 02:52:38;;;;;;;;;;;4.40;99.90;;;;;;5013198;28;19951;-74
2022/12/03 02:55:06;;;;;;;;;;;4.40;99.90;;;;;;5005392;28;19935;-74
2022/12/03 02:57:35;;;;;;;;;;;4.30;99.90;;;;;;5007222;28;19968;-75
2022/12/03 03:00:05;;;;;;;;;;;4.30;99.90;;;;;;5021609;28;20011;-73
2022/12/03 03:02:33;;;;;;;;;;;4.40;99.90;;;;;;5009791;28;19928;-74
2022/12/03 03:05:00;;;;;;;;;;;4.30;99.90;;;;;;5006360;28;19959;-74
2022/12/03 03:07:30;;;;;;;;;;;4.30;99.90;;;;;;5008383;28;19928;-74
2022/12/03 03:10:00;;;;;;;;;;;4.30;99.90;;;;;;5002128;28;19939;-74
2022/12/03 03:12:31;;;;;;;;;;;4.30;99.90;;;;;;5012103;28;20422;-74
2022/12/03 03:15:00;;;;;;;;;;;4.30;99.90;;;;;;5014838;28;20549;-74
2022/12/03 03:17:37;;;;;;;;;;;4.40;99.90;;;;;;5012724;28;20091;-74
2022/12/03 03:20:05;;;;;;;;;;;4.30;99.90;;;;;;5010107;28;19980;-74
2022/12/03 03:22:33;;;;;;;;;;;4.30;99.90;;;;;;5019276;28;20812;-74
2022/12/03 03:25:02;;;;;;;;;;;4.30;99.90;;;;;;5009810;28;19932;-74
2022/12/03 03:27:29;;;;;;;;;;;4.30;99.90;;;;;;5011132;28;19928;-73
2022/12/03 03:29:57;;;;;;;;;;;4.30;99.90;;;;;;5011987;28;19928;-73
2022/12/03 03:32:29;;;;;;;;;;;4.30;99.90;;;;;;5020282;28;20023;-74
2022/12/03 03:34:56;;;;;;;;;;;4.30;99.90;;;;;;5029134;28;20205;-74
2022/12/03 03:37:27;;;;;;;;;;;4.30;99.90;;;;;;5015602;28;20674;-74
2022/12/03 03:39:54;;;;;;;;;;;4.30;99.90;;;;;;5020295;28;20124;-74
2022/12/03 03:42:21;;;;;;;;;;;4.30;99.90;;;;;;5013017;28;19932;-74
2022/12/03 03:44:51;;;;;;;;;;;4.30;99.90;;;;;;5027318;28;19929;-74
2022/12/03 03:47:19;;;;;;;;;;;4.30;99.90;;;;;;5018144;28;20063;-74
2022/12/03 03:49:49;;;;;;;;;;;4.40;99.90;;;;;;5019310;28;20050;-74
2022/12/03 03:52:17;;;;;;;;;;;4.30;99.90;;;;;;5011475;28;20152;-74
2022/12/03 03:54:44;;;;;;;;;;;4.30;99.90;;;;;;5016305;28;19952;-74
2022/12/03 03:57:17;;;;;;;;;;;4.30;99.90;;;;;;5012681;28;19995;-74
2022/12/03 03:59:46;;;;;;;;;;;4.30;99.90;;;;;;5010119;28;19967;-74
2022/12/03 04:02:20;;;;;;;;;;;4.30;99.90;;;;;;5016912;28;20007;-74
2022/12/03 04:04:52;;;;;;;;;;;4.30;99.90;;;;;;5018279;28;20003;-73
2022/12/03 04:07:19;;;;;;;;;;;4.30;99.90;;;;;;5012562;28;22161;-74
2022/12/03 04:09:46;;;;;;;;;;;4.30;99.90;;;;;;5012777;28;19936;-74
2022/12/03 04:15:02;;;;;;;;;;;4.30;99.90;;;;;;5032801;28;20755;-74
2022/12/03 04:17:35;;;;;;;;;;;4.30;99.90;;;;;;5030977;28;20387;-74
2022/12/03 04:20:04;;;;;;;;;;;4.30;99.90;;;;;;5019256;28;19929;-74
2022/12/03 04:22:41;;;;;;;;;;;4.30;99.90;;;;;;5011405;28;20700;-74
2022/12/03 04:30:39;;;;;;;;;;;4.30;99.90;;;;;;5014325;28;19928;-74
2022/12/03 04:35:52;;;;;;;;;;;4.30;99.90;;;;;;5001690;28;20059;-74
2022/12/03 04:38:19;;;;;;;;;;;4.30;99.90;;;;;;5009035;28;19992;-74
2022/12/03 04:41:02;;;;;;;;;;;4.30;99.90;;;;;;5005325;28;20028;-74
2022/12/03 04:44:32;;;;;;;;;;;4.30;99.90;;;;;;5011752;28;20440;-74
2022/12/03 04:46:36;;;;;;;;;;;4.30;99.90;;;;;;5009720;28;20693;-74
2022/12/03 04:49:16;;;;;;;;;;;4.30;99.90;;;;;;5014126;28;19936;-74
2022/12/03 04:51:44;;;;;;;;;;;4.20;99.90;;;;;;5011098;28;19929;-73
2022/12/03 04:54:14;;;;;;;;;;;4.20;99.90;;;;;;5009151;28;19929;-73
2022/12/03 04:56:41;;;;;;;;;;;4.20;99.90;;;;;;5013501;28;19928;-73
2022/12/03 04:59:14;;;;;;;;;;;4.20;99.90;;;;;;5014592;28;20026;-74
2022/12/03 05:01:41;;;;;;;;;;;4.20;99.90;;;;;;5013073;28;19924;-73
2022/12/03 05:04:15;;;;;;;;;;;4.20;99.90;;;;;;5011186;28;19928;-74
2022/12/03 05:06:42;;;;;;;;;;;4.20;99.90;;;;;;5016077;28;20134;-74
2022/12/03 05:09:12;;;;;;;;;;;4.20;99.90;;;;;;5012308;28;19929;-74
2022/12/03 05:11:39;;;;;;;;;;;4.20;99.90;;;;;;5014815;28;19935;-73
2022/12/03 05:14:10;;;;;;;;;;;4.20;99.90;;;;;;5013589;28;19971;-74
2022/12/03 05:16:38;;;;;;;;;;;4.20;99.90;;;;;;5010752;28;19968;-74
2022/12/03 05:19:10;;;;;;;;;;;4.20;99.90;;;;;;5030359;28;19998;-74
2022/12/03 05:21:41;;;;;;;;;;;4.20;99.90;;;;;;5024226;28;20019;-74
2022/12/03 05:24:08;;;;;;;;;;;4.20;99.90;;;;;;5007896;28;19940;-74
2022/12/03 05:26:40;;;;;;;;;;;4.20;99.90;;;;;;5012176;28;19924;-74
2022/12/03 05:29:07;;;;;;;;;;;4.20;99.90;;;;;;5014542;28;20466;-74
2022/12/03 05:31:36;;;;;;;;;;;4.20;99.90;;;;;;5008581;28;19932;-74
2022/12/03 05:34:07;;;;;;;;;;;4.20;99.90;;;;;;5011718;28;19928;-74
2022/12/03 05:36:37;;;;;;;;;;;4.20;99.90;;;;;;5011103;28;19928;-74
2022/12/03 05:39:10;;;;;;;;;;;4.20;99.90;;;;;;5015044;28;20188;-74
2022/12/03 05:44:28;;;;;;;;;;;4.20;99.90;;;;;;5024543;28;19952;-74
2022/12/03 05:46:56;;;;;;;;;;;4.20;99.90;;;;;;5022065;28;19936;-74
2022/12/03 05:49:27;;;;;;;;;;;4.20;99.90;;;;;;5010547;28;20018;-74
2022/12/03 05:51:58;;;;;;;;;;;4.20;99.90;;;;;;5033650;28;19933;-73
2022/12/03 05:54:30;;;;;;;;;;;4.20;99.90;;;;;;5011245;28;20635;-73
2022/12/03 05:57:00;;;;;;;;;;;4.20;99.90;;;;;;5014543;28;19924;-74
2022/12/03 05:59:26;;;;;;;;;;;4.20;99.90;;;;;;5012606;28;19939;-74
2022/12/03 06:01:53;;;;;;;;;;;4.10;99.90;;;;;;5015668;28;20110;-74
2022/12/03 06:04:23;;;;;;;;;;;4.10;99.90;;;;;;5015847;28;19932;-73
2022/12/03 06:06:49;;;;;;;;;;;4.10;99.90;;;;;;5007856;28;19929;-74
2022/12/03 06:09:16;;;;;;;;;;;4.10;99.90;;;;;;5014033;28;19933;-74
2022/12/03 06:11:46;;;;;;;;;;;4.20;99.90;;;;;;5009357;28;19935;-74
2022/12/03 06:14:20;;;;;;;;;;;4.10;99.90;;;;;;5015731;28;19929;-74
2022/12/03 06:16:47;;;;;;;;;;;4.10;99.90;;;;;;5006012;28;19929;-73
2022/12/03 06:19:14;;;;;;;;;;;4.20;99.90;;;;;;5003238;28;19928;-73
2022/12/03 06:21:41;;;;;;;;;;;4.10;99.90;;;;;;5008338;28;19929;-73
2022/12/03 06:24:11;;;;;;;;;;;4.10;99.90;;;;;;4998535;28;20196;-72
2022/12/03 06:26:40;;;;;;;;;;;4.10;99.90;;;;;;5013256;28;19932;-73
2022/12/03 06:29:13;;;;;;;;;;;4.10;99.90;;;;;;5000038;28;19933;-73
2022/12/03 06:31:47;;;;;;;;;;;4.10;99.90;;;;;;5014719;28;20845;-74
2022/12/03 06:34:22;;;;;;;;;;;4.10;99.90;;;;;;4995874;28;20253;-74
2022/12/03 06:36:49;;;;;;;;;;;4.10;99.90;;;;;;4998659;28;19964;-74
2022/12/03 06:39:18;;;;;;;;;;;4.10;99.90;;;;;;5009057;28;20643;-74
2022/12/03 06:41:48;;;;;;;;;;;4.10;99.90;;;;;;5012748;28;19929;-74
2022/12/03 06:44:16;;;;;;;;;;;4.10;99.90;;;;;;5010403;28;20420;-74
2022/12/03 06:46:45;;;;;;;;;;;4.10;99.90;;;;;;5011155;28;20579;-74
2022/12/03 06:49:19;;;;;;;;;;;4.00;99.90;;;;;;5016912;28;20313;-73
2022/12/03 06:51:54;;;;;;;;;;;4.00;99.90;;;;;;5008795;28;19980;-74
2022/12/03 06:54:28;;;;;;;;;;;4.00;99.90;;;;;;5012061;28;20201;-74
2022/12/03 06:57:04;;;;;;;;;;;4.00;99.90;;;;;;5010834;28;19937;-74
2022/12/03 06:59:36;;;;;;;;;;;4.10;99.90;;;;;;5016110;28;19952;-74
2022/12/03 07:02:07;;;;;;;;;;;4.00;99.90;;;;;;5021394;28;20020;-74
2022/12/03 07:04:43;;;;;;;;;;;4.00;99.90;;;;;;5014264;28;19932;-73
2022/12/03 07:07:13;;;;;;;;;;;4.00;99.90;;;;;;5011993;28;20108;-74
2022/12/03 07:09:42;;;;;;;;;;;4.00;99.90;;;;;;5018631;28;20218;-74
2022/12/03 07:12:15;;;;;;;;;;;4.00;99.90;;;;;;5018157;28;19929;-74
2022/12/03 07:14:42;;;;;;;;;;;4.00;99.90;;;;;;5007434;28;19959;-73
2022/12/03 07:17:18;;;;;;;;;;;4.00;99.90;;;;;;5025886;28;20024;-74
2022/12/03 07:19:46;;;;;;;;;;;4.00;99.90;;;;;;5006210;28;20065;-74
2022/12/03 07:22:13;;;;;;;;;;;4.00;99.90;;;;;;5004240;28;20118;-74
2022/12/03 07:24:53;;;;;;;;;;;4.00;99.90;;;;;;5011253;28;19960;-73
2022/12/03 07:27:20;;;;;;;;;;;3.90;99.90;;;;;;5010432;28;20500;-74
2022/12/03 07:29:50;;;;;;;;;;;4.00;99.90;;;;;;5016641;28;19982;-73
2022/12/03 07:32:21;;;;;;;;;;;4.00;99.90;;;;;;5014395;28;20629;-74
2022/12/03 07:34:51;;;;;;;;;;;3.90;99.90;;;;;;5010103;28;19929;-74
2022/12/03 07:37:26;;;;;;;;;;;3.90;99.90;;;;;;5015300;28;19935;-73
2022/12/03 07:39:55;;;;;;;;;;;4.00;99.90;;;;;;5022402;28;19928;-74
2022/12/03 07:42:25;;;;;;;;;;;3.90;99.90;;;;;;5019377;28;20045;-73
2022/12/03 07:44:52;;;;;;;;;;;3.90;99.90;;;;;;4994371;28;20287;-73
2022/12/03 07:47:26;;;;;;;;;;;3.90;99.90;;;;;;5005562;28;19929;-73
2022/12/03 07:49:55;;;;;;;;;;;3.90;99.90;;;;;;5007155;28;19939;-73
2022/12/03 07:52:22;;;;;;;;;;;3.90;99.90;;;;;;5011289;28;20385;-73
2022/12/03 07:54:52;;;;;;;;;;;3.90;99.90;;;;;;5012739;28;19929;-73
2022/12/03 07:57:19;;;;;;;;;;;3.90;99.90;;;;;;5017079;28;19929;-74
2022/12/03 07:59:49;;;;;;;;;;;3.90;99.90;;;;;;5011295;28;19936;-73
2022/12/03 08:02:18;;;;;;;;;;;3.80;99.90;;;;;;5011585;28;20183;-73
2022/12/03 08:04:48;;;;;;;;;;;3.90;99.90;;;;;;5009594;28;19933;-73
2022/12/03 08:07:17;;;;;;;;;;;3.90;99.90;;;;;;5018624;28;20131;-73
2022/12/03 08:09:44;;;;;;;;;;;3.90;99.90;;;;;;5011662;28;19928;-73
2022/12/03 08:12:15;;;;;;;;;;;3.80;99.90;;;;;;5012427;28;19925;-73
2022/12/03 08:14:43;;;;;;;;;;;3.80;99.90;;;;;;5012123;28;20091;-74
2022/12/03 08:17:15;;;;;;;;;;;3.80;99.90;;;;;;5011526;28;20195;-74
2022/12/03 08:19:45;;;;;;;;;;;3.80;99.90;;;;;;5009041;28;19933;-73
2022/12/03 08:22:15;;;;;;;;;;;3.80;99.90;;;;;;5012491;28;20531;-73
2022/12/03 08:24:44;;;;;;;;;;;3.80;99.90;;;;;;5023427;28;19933;-73
2022/12/03 08:27:16;;;;;;;;;;;3.80;99.90;;;;;;5013817;28;20483;-73
2022/12/03 08:29:43;;;;;;;;;;;3.80;99.90;;;;;;5010741;28;20029;-78
2022/12/03 08:32:11;;;;;;;;;;;3.80;99.90;;;;;;5015254;28;19925;-73
2022/12/03 08:34:44;;;;;;;;;;;3.80;99.90;;;;;;5015298;28;19970;-72
2022/12/03 08:37:15;;;;;;;;;;;3.80;99.90;;;;;;5013129;28;20613;-74
2022/12/03 08:39:50;;;;;;;;;;;3.80;99.90;;;;;;5012408;28;20214;-74
2022/12/03 08:45:39;;;;;;;;;;;3.80;99.90;;;;;;5014119;28;19931;-72
2022/12/03 08:48:15;;;;;;;;;;;3.80;99.90;;;;;;4948142;28;20851;-72
2022/12/03 08:50:48;;;;;;;;;;;3.80;99.90;;;;;;4943237;28;19937;-73
2022/12/03 08:53:23;;;;;;;;;;;3.80;99.90;;;;;;4981848;28;19924;-73
2022/12/03 08:55:59;;;;;;;;;;;3.80;99.90;;;;;;5005771;28;19933;-73
2022/12/03 08:58:40;;;;;;;;;;;3.80;99.90;;;;;;5017275;28;19940;-76
2022/12/03 09:01:27;;;;;;;;;;;3.70;99.90;;;;;;5015677;28;20002;-73
2022/12/03 09:03:57;;;;;;;;;;;3.80;99.90;;;;;;5004702;28;19929;-73
2022/12/03 09:06:30;;;;;;;;;;;3.70;99.90;;;;;;5007494;28;19933;-74
2022/12/03 09:08:57;;;;;;;;;;;3.80;99.90;;;;;;5001817;28;19928;-74
2022/12/03 09:11:26;;;;;;;;;;;3.70;99.90;;;;;;5013442;28;20362;-74
2022/12/03 09:13:58;;;;;;;;;;;3.80;99.90;;;;;;5019149;28;19928;-73
2022/12/03 09:16:25;;;;;;;;;;;3.70;99.90;;;;;;5008685;28;19932;-73
2022/12/03 09:18:55;;;;;;;;;;;3.70;99.90;;;;;;5008962;28;20328;-73
2022/12/03 09:21:22;;;;;;;;;;;3.70;99.90;;;;;;5010632;28;19929;-74
2022/12/03 09:23:52;;;;;;;;;;;3.70;99.90;;;;;;5006077;28;20688;-74
2022/12/03 09:26:20;;;;;;;;;;;3.70;99.90;;;;;;5023606;28;19929;-72
2022/12/03 09:28:48;;;;;;;;;;;3.70;99.90;;;;;;5012559;28;19929;-72
2022/12/03 09:31:15;;;;;;;;;;;3.70;99.90;;;;;;5011100;28;19935;-73
2022/12/03 09:33:42;;;;;;;;;;;3.70;99.90;;;;;;5009108;28;20096;-73
2022/12/03 09:36:09;;;;;;;;;;;3.70;99.90;;;;;;5013620;28;20000;-73
2022/12/03 09:38:36;;;;;;;;;;;3.70;99.90;;;;;;5015455;28;20803;-73
2022/12/03 09:41:04;;;;;;;;;;;3.70;99.90;;;;;;5008741;28;19933;-73
2022/12/03 09:43:32;;;;;;;;;;;3.70;99.90;;;;;;5021393;28;20342;-73
2022/12/03 09:46:04;;;;;;;;;;;3.70;99.90;;;;;;5019342;28;19928;-74
2022/12/03 09:48:33;;;;;;;;;;;3.70;99.90;;;;;;5005469;28;19940;-73
2022/12/03 09:51:07;;;;;;;;;;;3.70;99.90;;;;;;5004752;28;20137;-74
2022/12/03 09:53:39;;;;;;;;;;;3.70;99.90;;;;;;5004237;28;19991;-73
2022/12/03 09:56:13;;;;;;;;;;;3.70;99.90;;;;;;5004260;28;19933;-72
2022/12/03 09:58:43;;;;;;;;;;;3.70;99.90;;;;;;5009509;28;20546;-73
2022/12/03 10:01:20;;;;;;;;;;;3.70;99.90;;;;;;5010995;28;20610;-73
2022/12/03 10:03:51;;;;;;;;;;;3.70;99.90;;;;;;5007751;28;19933;-73
2022/12/03 10:06:32;;;;;;;;;;;3.70;99.90;;;;;;5001649;28;20608;-73
2022/12/03 10:09:01;;;;;;;;;;;3.60;99.90;;;;;;5007562;28;19929;-71
2022/12/03 10:11:31;;;;;;;;;;;3.60;99.90;;;;;;5002232;28;19936;-72
2022/12/03 10:14:01;;;;;;;;;;;3.80;99.90;;;;;;5007582;28;20022;-72
2022/12/03 10:16:34;;;;;;;;;;;3.70;99.90;;;;;;5002654;28;20687;-77
2022/12/03 10:19:08;;;;;;;;;;;3.60;99.90;;;;;;5027696;28;19995;-74
2022/12/03 10:21:43;;;;;;;;;;;3.70;99.90;;;;;;5007294;28;19956;-72
2022/12/03 10:24:20;;;;;;;;;;;3.60;99.90;;;;;;5003834;28;19925;-72
2022/12/03 10:26:50;;;;;;;;;;;3.60;99.90;;;;;;5004657;28;19936;-73
2022/12/03 10:29:18;;;;;;;;;;;3.60;99.90;;;;;;5007888;28;19975;-72
2022/12/03 10:31:59;;;;;;;;;;;3.60;99.90;;;;;;5010446;28;19912;-71
2022/12/03 10:34:29;;;;;;;;;;;3.60;99.90;;;;;;5018029;28;19936;-72
2022/12/03 10:37:09;;;;;;;;;;;3.60;99.90;;;;;;5009135;28;20603;-74
2022/12/03 10:39:58;;;;;;;;;;;3.60;99.90;;;;;;5003500;28;20019;-72
2022/12/03 10:42:29;;;;;;;;;;;3.60;99.90;;;;;;5013967;28;19937;-73
2022/12/03 10:45:23;;;;;;;;;;;3.60;99.90;;;;;;5014308;28;20109;-72
2022/12/03 10:48:11;;;;;;;;;;;3.60;99.90;;;;;;4947132;28;19999;-72
2022/12/03 10:50:49;;;;;;;;;;;3.60;99.90;;;;;;4962451;28;19929;-72
2022/12/03 10:53:20;;;;;;;;;;;3.60;99.90;;;;;;5006722;28;19929;-72
2022/12/03 10:55:57;;;;;;;;;;;3.60;99.90;;;;;;5007853;28;19940;-72
2022/12/03 10:58:26;;;;;;;;;;;3.60;99.90;;;;;;5011898;28;20414;-72
2022/12/03 11:01:02;;;;;;;;;;;3.60;99.90;;;;;;4999170;28;20044;-73
2022/12/03 11:03:30;;;;;;;;;;;3.60;99.90;;;;;;5010675;28;19929;-73
2022/12/03 11:06:03;;;;;;;;;;;3.60;99.90;;;;;;5012408;28;19974;-72
2022/12/03 11:08:33;;;;;;;;;;;3.60;99.90;;;;;;5012698;28;20284;-72
2022/12/03 11:11:05;;;;;;;;;;;3.60;99.90;;;;;;5023980;28;19933;-72
2022/12/03 11:13:50;;;;;;;;;;;3.60;99.90;;;;;;5005218;28;20049;-72
2022/12/03 11:16:44;;;;;;;;;;;3.60;99.90;;;;;;5009431;28;19929;-72
2022/12/03 11:19:16;;;;;;;;;;;3.60;99.90;;;;;;5009398;28;19936;-72
2022/12/03 11:22:00;;;;;;;;;;;3.60;99.90;;;;;;5008947;28;19933;-72
2022/12/03 11:24:40;;;;;;;;;;;3.60;99.90;;;;;;5013921;28;19935;-72
2022/12/03 11:27:21;;;;;;;;;;;3.50;99.90;;;;;;5015695;28;20535;-72
2022/12/03 11:30:03;;;;;;;;;;;3.60;99.90;;;;;;5002432;28;19981;-78
2022/12/03 11:32:48;;;;;;;;;;;3.60;99.90;;;;;;5005944;28;20325;-72
2022/12/03 11:35:26;;;;;;;;;;;3.50;99.90;;;;;;5026780;28;19955;-73
2022/12/03 11:38:17;;;;;;;;;;;3.50;99.90;;;;;;5017192;28;19925;-72
2022/12/03 11:41:00;;;;;;;;;;;3.50;99.90;;;;;;5008377;28;19935;-72
2022/12/03 11:43:42;;;;;;;;;;;3.50;99.90;;;;;;5006940;28;21089;-72
2022/12/03 11:46:14;;;;;;;;;;;3.50;99.90;;;;;;5011469;28;20198;-72
2022/12/03 11:48:49;;;;;;;;;;;3.50;99.90;;;;;;5007375;28;19929;-73
2022/12/03 11:51:22;;;;;;;;;;;3.50;99.90;;;;;;5001430;28;19925;-74
2022/12/03 11:53:53;;;;;;;;;;;3.50;99.90;;;;;;5012528;28;20306;-73
2022/12/03 11:56:25;;;;;;;;;;;3.50;99.90;;;;;;5005092;28;20562;-74
2022/12/03 11:58:57;;;;;;;;;;;3.50;99.90;;;;;;5012754;28;19925;-74
2022/12/03 12:01:37;;;;;;;;;;;3.50;99.90;;;;;;5008345;28;19941;-73
2022/12/03 12:04:05;;;;;;;;;;;3.50;99.90;;;;;;5004188;28;19963;-73
2022/12/03 12:06:43;;;;;;;;;;;3.50;99.90;;;;;;5011489;28;20613;-74
2022/12/03 12:09:11;;;;;;;;;;;3.50;99.90;;;;;;5003485;28;19933;-75
2022/12/03 12:11:40;;;;;;;;;;;3.50;99.90;;;;;;5010282;28;20730;-74
2022/12/03 12:14:17;;;;;;;;;;;3.50;99.90;;;;;;5008572;28;20590;-74
2022/12/03 12:16:49;;;;;;;;;;;3.50;99.90;;;;;;5010027;28;19948;-74
2022/12/03 12:19:34;;;;;;;;;;;3.50;99.90;;;;;;5009869;28;19929;-75
2022/12/03 12:22:16;;;;;;;;;;;3.50;99.90;;;;;;5011362;28;20375;-75
2022/12/03 12:24:57;;;;;;;;;;;3.50;99.90;;;;;;5003165;28;20097;-74
2022/12/03 12:27:31;;;;;;;;;;;3.50;99.90;;;;;;5006574;28;19925;-75
2022/12/03 12:30:02;;;;;;;;;;;3.50;99.90;;;;;;5019852;28;19944;-73
2022/12/03 12:32:49;;;;;;;;;;;3.50;99.90;;;;;;5009926;28;19931;-75
2022/12/03 12:35:18;;;;;;;;;;;3.40;99.90;;;;;;5008031;28;20495;-72
2022/12/03 12:37:49;;;;;;;;;;;3.40;99.90;;;;;;5021748;28;19929;-73
2022/12/03 12:40:17;;;;;;;;;;;3.50;99.90;;;;;;4999364;28;20026;-72
2022/12/03 12:42:49;;;;;;;;;;;3.50;99.90;;;;;;5001722;28;20063;-73
2022/12/03 12:45:19;;;;;;;;;;;3.40;99.90;;;;;;5002547;28;20231;-73
2022/12/03 12:47:57;;;;;;;;;;;3.40;99.90;;;;;;5005218;28;20219;-71
2022/12/03 12:50:26;;;;;;;;;;;3.40;99.90;;;;;;5005487;28;19940;-72
2022/12/03 12:52:55;;;;;;;;;;;3.50;99.90;;;;;;4992385;28;20027;-72
2022/12/03 12:55:23;;;;;;;;;;;3.40;99.90;;;;;;4998908;28;19929;-72
2022/12/03 12:57:57;;;;;;;;;;;3.40;99.90;;;;;;4999839;28;20133;-73
2022/12/03 13:00:24;;;;;;;;;;;3.40;99.90;;;;;;5020623;28;20346;-71
2022/12/03 13:02:56;;;;;;;;;;;3.30;99.90;;;;;;5018277;28;20007;-71
2022/12/03 13:05:32;;;;;;;;;;;3.40;99.90;;;;;;5016857;28;20023;-73
2022/12/03 13:07:59;;;;;;;;;;;3.40;99.90;;;;;;5004363;28;20137;-71
2022/12/03 13:10:47;;;;;;;;;;;3.40;99.90;;;;;;5021505;28;19928;-80
2022/12/03 13:13:17;;;;;;;;;;;3.40;99.90;;;;;;4998706;28;19925;-75
2022/12/03 13:16:01;;;;;;;;;;;3.40;99.90;;;;;;5009095;28;19929;-71
2022/12/03 13:18:39;;;;;;;;;;;3.40;99.90;;;;;;5011355;28;19933;-71
2022/12/03 13:21:22;;;;;;;;;;;;;;;;;;;;;
2022/12/03 13:23:51;;;;;;;;;;;3.40;99.90;;;;;;4990683;28;19967;-70
2022/12/03 13:26:24;;;;;;;;;;;3.40;99.90;;;;;;5003471;28;19936;-71
2022/12/03 13:28:52;;;;;;;;;;;3.40;99.90;;;;;;5002918;28;19940;-70
2022/12/03 13:31:44;;;;;;;;;;;3.40;99.90;;;;;;5018168;28;19940;-71
2022/12/03 13:34:25;;;;;;;;;;;3.40;99.90;;;;;;5001405;28;19933;-73
2022/12/03 13:36:53;;;;;;;;;;;3.40;99.90;;;;;;4985660;28;19932;-71
2022/12/03 13:39:21;;;;;;;;;;;3.40;99.90;;;;;;5017288;28;19932;-71
2022/12/03 13:44:40;;;;;;;;;;;3.40;99.90;;;;;;5011034;28;19995;-71
2022/12/03 13:47:12;;;;;;;;;;;3.40;99.90;;;;;;5010881;28;19925;-71
2022/12/03 13:49:48;;;;;;;;;;;3.40;99.90;;;;;;5008686;28;19929;-71
2022/12/03 13:52:32;;;;;;;;;;;3.30;99.90;;;;;;4980894;28;20214;-72
2022/12/03 13:55:07;;;;;;;;;;;3.40;99.90;;;;;;5009292;28;20484;-71
2022/12/03 13:57:35;;;;;;;;;;;3.40;99.90;;;;;;5009921;28;19935;-71
2022/12/03 14:00:02;;;;;;;;;;;3.40;99.90;;;;;;5010809;28;19937;-71
2022/12/03 14:02:43;;;;;;;;;;;3.30;99.90;;;;;;5014596;28;19939;-71
2022/12/03 14:05:16;;;;;;;;;;;3.30;99.90;;;;;;5003195;28;19936;-71
2022/12/03 14:07:43;;;;;;;;;;;3.30;99.90;;;;;;5012831;28;19979;-71
2022/12/03 14:10:15;;;;;;;;;;;3.30;99.90;;;;;;5012504;28;19929;-70
2022/12/03 14:12:45;;;;;;;;;;;3.30;99.90;;;;;;5008914;28;19939;-73
2022/12/03 14:15:13;;;;;;;;;;;3.30;99.90;;;;;;5010798;28;19932;-71
2022/12/03 14:17:43;;;;;;;;;;;3.30;99.90;;;;;;5012163;28;19933;-71
2022/12/03 14:20:19;;;;;;;;;;;3.30;99.90;;;;;;5010113;28;19936;-71
2022/12/03 14:22:45;;;;;;;;;;;3.30;99.90;;;;;;5021191;28;19925;-71
2022/12/03 14:25:13;;;;;;;;;;;3.30;99.90;;;;;;5010695;28;19955;-71
2022/12/03 14:27:40;;;;;;;;;;;3.30;99.90;;;;;;5013389;28;20166;-71
2022/12/03 14:30:19;;;;;;;;;;;3.30;99.90;;;;;;5010462;28;20548;-71
2022/12/03 14:33:04;;;;;;;;;;;;;;;;;;;;;
2022/12/03 14:35:36;;;;;;;;;;;3.20;99.90;;;;;;5016294;28;20106;-71
2022/12/03 14:38:07;;;;;;;;;;;3.30;99.90;;;;;;5009495;28;19936;-71
2022/12/03 14:40:35;;;;;;;;;;;3.30;99.90;;;;;;5026771;28;20383;-71
2022/12/03 14:43:16;;;;;;;;;;;3.30;99.90;;;;;;5007286;28;20170;-71
2022/12/03 14:45:52;;;;;;;;;;;3.30;99.90;;;;;;5008265;28;19928;-71
2022/12/03 14:48:23;;;;;;;;;;;3.30;99.90;;;;;;5011209;28;19929;-71
2022/12/03 14:50:52;;;;;;;;;;;3.20;99.90;;;;;;5011811;28;19999;-72
2022/12/03 14:53:21;;;;;;;;;;;3.30;99.90;;;;;;5015596;28;19928;-74
2022/12/03 14:55:49;;;;;;;;;;;3.30;99.90;;;;;;5006081;28;19929;-70
2022/12/03 14:58:16;;;;;;;;;;;3.20;99.90;;;;;;5015902;28;19935;-71
2022/12/03 15:00:44;;;;;;;;;;;3.30;99.90;;;;;;5011216;28;19928;-71
2022/12/03 15:03:11;;;;;;;;;;;3.30;99.90;;;;;;5016169;28;19968;-71
2022/12/03 15:05:38;;;;;;;;;;;3.20;99.90;;;;;;5018531;28;20706;-71
2022/12/03 15:08:08;;;;;;;;;;;3.30;99.90;;;;;;5022130;28;20007;-71
2022/12/03 15:10:41;;;;;;;;;;;3.20;99.90;;;;;;5020868;28;19928;-70
2022/12/03 15:13:11;;;;;;;;;;;3.20;99.90;;;;;;5026027;28;19936;-72
2022/12/03 15:15:41;;;;;;;;;;;3.20;99.90;;;;;;5021302;28;19937;-71
2022/12/03 15:18:08;;;;;;;;;;;3.20;99.90;;;;;;5018315;28;20107;-71